Accueil
METAR-TAF:

METAR-TAF

Aéroports :

Aéroport Sandro-Pertini de Turin Caselle

Turin, Italie

latitude: 45-13N, longitude: 007-39E, altitude: 301 m

Observation

Le bulletin a été fait il y a 30 minutes, à 06:50 UTC
Vent 5 kt de ouest/nord-ouest
Température -1°C
Humidité 74%
Pression 1030 hPa
Visibilité: 6000 m

METAR: LIMF 240650Z 29005KT 6000 NSC M01/M05 Q1030

Heure: 08:20 (07:20 UTC)

Prévision

Le bulletin a été fait il y a 2 heures et 20 minutes, à 05:00 UTC
Prévision valable du 24 à 06 UTC au 25 à 06 UTC
Vent 5 kt de direction variable
Visibilité: 6000 m
Evoluant progressivement
du 24 à 18 UTC au 24 à 20 UTC
Visibilité: 0500 m
brouillard givrant

TAF: LIMF 240500Z 2406/2506 VRB05KT 6000 NSC BECMG 2418/2420 0500 FZFG

Observations et prévisions météorologiques de plus de 4000 aéroports (messages METAR et TAF).

Les stations disponibles sont représentées par des disques jaunes et rouges sur la carte.

Passer la souris dessus pour voir le nom de la station.

Cliquer dessus pour voir les observations et prévisions météorologiques.

Pour changer de carte: cliquez sur les boutons verts avec une croix noire pour zoomer, sur le bouton vert avec un tiret pour effectuer un zoom arrière, ou sur les flèches vertes pour les cartes adjacentes.


METAR-TAF: